Time;durP1;ratioP1;P1;durP2;ratioP2;P2;SDS_P1;SDS_P2;PMS_P1;PMS_P2;Temp;Humidity;BMP_temperature;BMP_pressure;BME280_temperature;BME280_humidity;BME280_pressure;Samples;Min_cycle;Max_cycle;Signal;HPM_P1;HPM_P2
2021/11/09 00:03:37;;;;;;;16.48;3.70;;;;;;;8.56;100.00;102403.44;10177135;28;20061;-70
2021/11/09 00:08:41;;;;;;;16.67;3.25;;;;;;;8.59;100.00;102397.47;10177216;28;20041;-70
2021/11/09 00:13:38;;;;;;;19.67;3.83;;;;;;;8.55;100.00;102395.53;10176440;28;20042;-70
2021/11/09 00:18:35;;;;;;;22.00;4.15;;;;;;;8.47;100.00;102388.66;10178309;28;20124;-70
2021/11/09 00:23:32;;;;;;;18.77;4.95;;;;;;;8.51;100.00;102397.94;10175444;28;20397;-70
2021/11/09 00:28:29;;;;;;;20.30;4.43;;;;;;;8.48;100.00;102387.56;10176811;28;20054;-69
2021/11/09 00:33:26;;;;;;;14.88;3.78;;;;;;;8.52;100.00;102385.97;10177172;28;20049;-70
2021/11/09 00:38:23;;;;;;;31.95;4.53;;;;;;;8.50;100.00;102398.22;10178352;28;20530;-69
2021/11/09 00:43:25;;;;;;;19.23;3.78;;;;;;;8.56;100.00;102392.53;10171671;28;20043;-70
2021/11/09 00:48:21;;;;;;;22.63;3.65;;;;;;;8.57;100.00;102388.72;10175030;28;20805;-70
2021/11/09 00:53:18;;;;;;;22.25;3.80;;;;;;;8.58;100.00;102384.88;10176603;28;20045;-69
2021/11/09 00:58:15;;;;;;;21.13;4.93;;;;;;;8.50;100.00;102385.41;10178567;28;20038;-70
2021/11/09 01:03:13;;;;;;;15.35;2.90;;;;;;;8.52;100.00;102377.78;10183708;28;20057;-69
2021/11/09 01:08:13;;;;;;;23.27;3.33;;;;;;;8.43;100.00;102354.84;10174090;28;20053;-70
2021/11/09 01:13:11;;;;;;;24.38;4.43;;;;;;;8.32;100.00;102366.72;10180547;28;20046;-69
2021/11/09 01:18:08;;;;;;;17.38;3.40;;;;;;;8.25;100.00;102366.13;10176208;28;20057;-70
2021/11/09 01:23:04;;;;;;;19.60;3.83;;;;;;;8.18;100.00;102369.88;10179186;28;20057;-70
2021/11/09 01:28:01;;;;;;;14.60;3.38;;;;;;;8.16;100.00;102372.03;10177214;28;20082;-70
2021/11/09 01:32:58;;;;;;;19.25;3.45;;;;;;;8.15;100.00;102375.88;10180310;28;20454;-70
2021/11/09 01:37:56;;;;;;;14.88;3.97;;;;;;;8.18;100.00;102380.78;10176055;28;20039;-69
2021/11/09 01:42:54;;;;;;;27.75;3.85;;;;;;;8.19;100.00;102387.88;10174820;28;20092;-68
2021/11/09 01:47:52;;;;;;;22.88;3.75;;;;;;;8.20;100.00;102384.06;10177082;28;20092;-68
2021/11/09 01:52:48;;;;;;;21.05;4.60;;;;;;;8.22;100.00;102381.09;10176871;28;20100;-69
2021/11/09 01:57:46;;;;;;;23.50;3.50;;;;;;;8.20;100.00;102384.06;10172712;28;20045;-68
2021/11/09 02:02:44;;;;;;;14.73;3.05;;;;;;;8.20;100.00;102384.06;10192690;28;20054;-69
2021/11/09 02:07:50;;;;;;;15.43;3.25;;;;;;;8.19;100.00;102385.16;10181755;28;20041;-69
2021/11/09 02:12:47;;;;;;;13.50;3.00;;;;;;;8.17;100.00;102384.59;10177200;28;20635;-70
2021/11/09 02:17:46;;;;;;;16.77;3.20;;;;;;;8.14;100.00;102382.38;10183579;28;20500;-70
2021/11/09 02:22:43;;;;;;;13.82;4.35;;;;;;;8.13;100.00;102388.91;10189447;28;20042;-69
2021/11/09 02:27:40;;;;;;;14.13;2.80;;;;;;;8.13;100.00;102397.09;10179980;28;20542;-70
2021/11/09 02:32:37;;;;;;;15.50;3.63;;;;;;;8.18;100.00;102390.88;10188256;28;20096;-69
2021/11/09 02:37:34;;;;;;;21.67;4.10;;;;;;;8.21;100.00;102395.78;10182818;28;20043;-69
2021/11/09 02:42:37;;;;;;;20.30;3.97;;;;;;;8.28;100.00;102396.38;10181881;28;20061;-70
2021/11/09 02:47:52;;;;;;;16.98;3.92;;;;;;;8.21;100.00;102402.09;10185185;28;20112;-69
2021/11/09 02:53:03;;;;;;;23.10;4.07;;;;;;;8.23;100.00;102416.25;10183833;28;20042;-70
2021/11/09 03:08:03;;;;;;;20.65;3.88;;;;;;;8.30;100.00;102435.09;10173689;28;20077;-70
2021/11/09 03:12:59;;;;;;;25.00;4.27;;;;;;;8.30;100.00;102431.56;10177150;28;20539;-70
2021/11/09 03:18:01;;;;;;;19.10;4.10;;;;;;;8.27;100.00;102430.19;10181185;28;20596;-70
2021/11/09 03:49:04;;;;;;;19.17;3.72;;;;;;;8.36;100.00;102452.31;10183938;28;20074;-69
2021/11/09 03:54:05;;;;;;;15.90;4.25;;;;;;;8.39;100.00;102446.34;10182610;28;20134;-69
2021/11/09 03:59:04;;;;;;;19.17;4.03;;;;;;;8.39;100.00;102451.81;10182202;28;20046;-70
2021/11/09 04:04:19;;;;;;;19.05;4.22;;;;;;;8.41;100.00;102442.31;10175131;28;20516;-70
2021/11/09 04:09:24;;;;;;;22.50;4.72;;;;;;;8.43;100.00;102442.06;10176287;28;20034;-70
2021/11/09 05:10:31;;;;;;;17.40;7.70;;;;;;;8.38;100.00;102466.53;10168895;28;20049;-70
2021/11/09 05:15:27;;;;;;;13.90;7.00;;;;;;;8.36;100.00;102479.59;10160066;28;20042;-71
2021/11/09 05:20:25;;;;;;;16.08;6.95;;;;;;;8.32;100.00;102478.44;10174182;28;20584;-72
2021/11/09 05:25:22;;;;;;;12.45;4.63;;;;;;;8.29;100.00;102473.53;10165191;28;20570;-71
2021/11/09 05:30:21;;;;;;;7.30;3.58;;;;;;;8.26;100.00;102471.31;10167871;28;20061;-72
2021/11/09 05:35:19;;;;;;;9.38;2.92;;;;;;;8.25;100.00;102477.84;10171707;28;20095;-72
2021/11/09 05:40:17;;;;;;;7.47;2.75;;;;;;;8.27;100.00;102494.78;10194350;28;20042;-72
2021/11/09 05:45:17;;;;;;;6.50;2.40;;;;;;;8.27;100.00;102492.03;10175698;28;20423;-71
2021/11/09 05:50:13;;;;;;;7.38;2.40;;;;;;;8.31;100.00;102509.50;10175728;28;20526;-71
2021/11/09 05:55:10;;;;;;;11.35;2.88;;;;;;;8.33;100.00;102496.44;10172729;28;20054;-71
2021/11/09 06:00:08;;;;;;;8.13;3.40;;;;;;;8.31;100.00;102517.66;10161979;28;20042;-72
2021/11/09 06:05:06;;;;;;;9.15;3.97;;;;;;;8.35;100.00;102526.97;10176394;28;20104;-73
2021/11/09 06:10:03;;;;;;;13.48;4.88;;;;;;;8.31;100.00;102534.03;10175400;28;20053;-72
2021/11/09 06:15:00;;;;;;;13.10;5.53;;;;;;;8.33;100.00;102540.88;10181475;28;20104;-71
2021/11/09 06:19:56;;;;;;;13.73;6.55;;;;;;;8.35;100.00;102548.78;10174936;28;20065;-72
2021/11/09 06:24:53;;;;;;;19.05;7.50;;;;;;;8.35;100.00;102543.34;10196008;28;20099;-71
2021/11/09 06:29:51;;;;;;;16.95;7.75;;;;;;;8.42;100.00;102550.28;10185894;28;20049;-70
2021/11/09 06:34:48;;;;;;;16.13;7.50;;;;;;;8.47;100.00;102552.22;10195560;28;20086;-70
2021/11/09 06:39:44;;;;;;;17.95;9.18;;;;;;;8.51;100.00;102561.50;10196046;28;20045;-70
2021/11/09 06:44:41;;;;;;;14.00;8.45;;;;;;;8.48;100.00;102570.22;10182813;28;20066;-70
2021/11/09 06:49:37;;;;;;;16.25;8.88;;;;;;;8.52;100.00;102571.34;10195012;28;20038;-69
2021/11/09 06:54:36;;;;;;;18.58;9.27;;;;;;;8.55;100.00;102576.28;10200280;28;20547;-71
2021/11/09 06:59:33;;;;;;;17.05;11.15;;;;;;;8.59;100.00;102573.88;10202780;28;20034;-71
2021/11/09 07:04:30;;;;;;;16.58;10.48;;;;;;;8.61;100.00;102569.81;10202441;28;20061;-71
2021/11/09 07:09:26;;;;;;;18.52;12.43;;;;;;;8.60;100.00;102562.69;10193526;28;20820;-71
2021/11/09 07:14:23;;;;;;;22.70;12.60;;;;;;;8.53;100.00;102551.16;10198670;28;20133;-71
2021/11/09 07:19:20;;;;;;;21.88;12.82;;;;;;;8.45;100.00;102553.53;10196361;28;20871;-71
2021/11/09 07:24:17;;;;;;;23.67;12.43;;;;;;;8.38;100.00;102570.09;10202556;28;20100;-70
2021/11/09 07:29:14;;;;;;;28.55;14.50;;;;;;;8.30;100.00;102562.38;10199525;28;20046;-70
2021/11/09 07:34:10;;;;;;;23.60;13.48;;;;;;;8.21;100.00;102565.56;10199747;28;20046;-71
2021/11/09 07:39:07;;;;;;;19.95;12.65;;;;;;;8.15;100.00;102577.50;10172903;28;20115;-71
2021/11/09 07:44:04;;;;;;;24.10;10.55;;;;;;;8.15;100.00;102591.13;10178683;28;20534;-71
2021/11/09 07:49:02;;;;;;;22.73;11.23;;;;;;;8.17;100.00;102605.31;10186042;28;20050;-70
2021/11/09 07:54:00;;;;;;;18.13;10.00;;;;;;;8.20;100.00;102601.25;10180000;28;20050;-70
2021/11/09 08:09:10;;;;;;;17.80;8.25;;;;;;;8.19;100.00;102600.44;10197825;28;20107;-71
2021/11/09 08:14:07;;;;;;;15.05;7.68;;;;;;;8.19;100.00;102614.06;10170865;28;20070;-71
2021/11/09 08:19:05;;;;;;;16.42;8.23;;;;;;;8.21;100.00;102613.78;10167164;28;20077;-69
2021/11/09 08:24:02;;;;;;;18.60;7.88;;;;;;;8.28;100.00;102614.41;10161785;28;20081;-70
2021/11/09 08:29:05;;;;;;;20.98;7.20;;;;;;;8.33;100.00;102624.53;10167434;28;20084;-70
2021/11/09 08:34:05;;;;;;;15.45;7.10;;;;;;;8.41;100.00;102624.13;10164454;28;20154;-70
2021/11/09 08:39:05;;;;;;;16.98;7.10;;;;;;;8.48;100.00;102619.28;10170257;28;22327;-69
2021/11/09 08:44:07;;;;;;;15.15;5.93;;;;;;;8.52;100.00;102631.34;10187869;28;20451;-69
2021/11/09 08:49:06;;;;;;;14.40;6.28;;;;;;;8.60;100.00;102639.03;10201825;28;20046;-70
2021/11/09 09:04:21;;;;;;;22.73;8.40;;;;;;;8.84;100.00;102634.09;10192097;28;20061;-71
2021/11/09 09:09:19;;;;;;;19.67;9.70;;;;;;;8.94;100.00;102633.34;10186153;28;20073;-71
2021/11/09 09:14:18;;;;;;;21.13;9.15;;;;;;;8.98;100.00;102639.09;10187227;28;20069;-70
2021/11/09 09:19:19;;;;;;;29.25;10.27;;;;;;;9.08;100.00;102638.38;10191821;28;20493;-70
2021/11/09 09:29:42;;;;;;;24.63;10.82;;;;;;;9.23;100.00;102635.75;10169487;28;20056;-69
2021/11/09 09:55:40;;;;;;;29.48;11.23;;;;;;;9.48;91.70;102635.94;10194424;28;20065;-70
2021/11/09 10:00:39;;;;;;;25.73;13.20;;;;;;;9.56;92.02;102636.50;10190097;28;20090;-69
2021/11/09 10:05:39;;;;;;;29.25;12.43;;;;;;;9.63;90.30;102645.28;10178027;28;20100;-69
2021/11/09 10:10:37;;;;;;;33.65;12.32;;;;;;;9.70;90.83;102629.53;10189554;28;20050;-70
2021/11/09 10:15:36;;;;;;;32.42;12.57;;;;;;;9.66;88.53;102633.88;10193910;28;20530;-69
2021/11/09 10:20:46;;;;;;;23.20;10.80;;;;;;;9.76;88.01;102622.97;10191693;28;20485;-70
2021/11/09 10:25:43;;;;;;;25.63;10.07;;;;;;;9.83;88.55;102628.19;10192734;28;20062;-69
2021/11/09 10:30:58;;;;;;;33.20;12.77;;;;;;;9.85;87.41;102615.91;10190397;28;20046;-71
2021/11/09 10:35:55;;;;;;;31.55;10.27;;;;;;;9.93;86.17;102624.69;10195218;28;20046;-70
2021/11/09 10:40:53;;;;;;;25.88;9.88;;;;;;;9.96;84.20;102627.72;10202582;28;20046;-70
2021/11/09 10:45:50;;;;;;;38.95;10.75;;;;;;;10.00;83.15;102617.06;10199554;28;20045;-71
2021/11/09 10:50:51;;;;;;;24.10;8.88;;;;;;;10.01;82.27;102610.53;10208622;28;20053;-71
2021/11/09 11:06:50;;;;;;;28.63;9.05;;;;;;;10.29;79.50;102607.34;10197266;28;20161;-70
2021/11/09 11:11:51;;;;;;;24.92;8.18;;;;;;;10.44;80.27;102606.59;10179146;28;20120;-73
2021/11/09 11:17:06;;;;;;;20.80;8.02;;;;;;;10.47;76.92;102606.03;10175443;28;20149;-74
2021/11/09 11:22:07;;;;;;;27.10;9.20;;;;;;;10.64;77.02;102599.47;10166273;28;20047;-69
2021/11/09 11:27:05;;;;;;;28.13;7.47;;;;;;;10.68;74.15;102601.41;10161874;28;20475;-69
2021/11/09 11:32:04;;;;;;;24.67;7.63;;;;;;;10.65;73.00;102596.50;10174359;28;20077;-70
2021/11/09 11:37:01;;;;;;;26.75;7.95;;;;;;;10.83;73.41;102597.03;10170431;28;20397;-70
2021/11/09 11:42:01;;;;;;;22.35;6.97;;;;;;;10.89;71.14;102585.00;10185601;28;20054;-74
2021/11/09 11:47:04;;;;;;;26.20;7.30;;;;;;;10.89;68.08;102585.00;10165093;28;20423;-73
2021/11/09 11:52:04;;;;;;;26.40;7.03;;;;;;;10.92;68.66;102573.50;10169246;28;20512;-70
2021/11/09 11:57:02;;;;;;;19.65;6.07;;;;;;;11.05;68.40;102572.94;10168899;28;20125;-69
2021/11/09 12:02:00;;;;;;;21.02;6.32;;;;;;;11.19;67.63;102575.13;10174760;28;20129;-69
2021/11/09 12:06:57;;;;;;;19.65;6.07;;;;;;;11.26;65.19;102581.13;10190192;28;20050;-72
2021/11/09 12:11:54;;;;;;;21.30;5.75;;;;;;;11.26;64.57;102594.81;10181260;28;20047;-71
2021/11/09 12:16:58;;;;;;;19.15;5.00;;;;;;;11.26;64.06;102572.91;10183096;28;20134;-70
2021/11/09 12:22:08;;;;;;;17.23;4.75;;;;;;;11.28;62.69;102559.72;10182639;28;20050;-70
2021/11/09 12:27:05;;;;;;;20.88;5.53;;;;;;;11.48;62.43;102551.47;10176595;28;20078;-72
2021/11/09 12:32:20;;;;;;;24.08;5.88;;;;;;;11.73;61.25;102566.19;10179389;28;20507;-72
2021/11/09 12:37:20;;;;;;;17.10;5.03;;;;;;;11.86;60.06;102554.63;10172349;28;20070;-73
2021/11/09 12:42:17;;;;;;;16.73;5.55;;;;;;;11.93;59.06;102560.66;10177579;28;20141;-72
2021/11/09 12:47:13;;;;;;;19.15;4.80;;;;;;;12.19;57.88;102552.28;10188962;28;20069;-73
2021/11/09 12:52:12;;;;;;;16.73;4.93;;;;;;;12.56;58.87;102542.69;10187049;28;20053;-72
2021/11/09 12:57:09;;;;;;;17.50;5.60;;;;;;;12.73;57.62;102534.84;10186202;28;20141;-72
2021/11/09 13:12:23;;;;;;;17.88;5.60;;;;;;;12.98;56.82;102519.25;10186129;28;20100;-71
2021/11/09 13:17:24;;;;;;;16.48;4.72;;;;;;;13.33;56.44;102514.50;10179131;28;20046;-70
2021/11/09 13:22:28;;;;;;;19.02;5.15;;;;;;;13.38;54.87;102520.75;10186486;28;20478;-68
2021/11/09 13:27:39;;;;;;;;;;;;;;;13.18;54.15;102507.22;10174505;28;20064;-70
2021/11/09 13:32:36;;;;;;;14.35;4.25;;;;;;;13.08;53.89;102504.59;10179074;28;19922;-69
2021/11/09 13:37:35;;;;;;;17.55;4.85;;;;;;;13.21;53.94;102493.72;10174725;28;20466;-72
2021/11/09 13:42:32;;;;;;;14.90;4.20;;;;;;;13.10;54.15;102489.44;10189963;28;20111;-70
2021/11/09 13:47:32;;;;;;;16.65;3.83;;;;;;;13.33;53.53;102489.78;10176576;28;20573;-71
2021/11/09 13:52:28;;;;;;;15.15;4.15;;;;;;;13.18;52.65;102490.72;10187975;28;20050;-73
2021/11/09 13:57:24;;;;;;;17.33;3.80;;;;;;;13.35;52.81;102487.56;10192290;28;20064;-70
2021/11/09 14:02:36;;;;;;;16.92;3.67;;;;;;;13.39;54.25;102496.81;10187899;28;20050;-71
2021/11/09 14:12:57;;;;;;;14.05;3.53;;;;;;;13.47;52.62;102490.69;10185433;28;20042;-71
2021/11/09 14:17:54;;;;;;;11.47;2.80;;;;;;;13.34;53.17;102483.16;10169755;28;20562;-69
2021/11/09 14:23:08;;;;;;;14.35;3.80;;;;;;;13.16;52.73;102492.94;10168360;28;20417;-70
2021/11/09 14:28:04;;;;;;;14.40;4.15;;;;;;;13.01;53.72;102492.00;10171793;28;20042;-68
2021/11/09 14:33:21;;;;;;;13.63;3.83;;;;;;;12.69;54.21;102492.59;10168555;28;20042;-69
2021/11/09 14:38:21;;;;;;;13.80;3.35;;;;;;;12.53;56.18;102491.94;10171205;28;20088;-69
2021/11/09 14:43:37;;;;;;;14.40;3.65;;;;;;;12.24;55.54;102505.59;10173742;28;20234;-68
2021/11/09 14:53:41;;;;;;;13.25;3.05;;;;;;;11.92;57.50;102506.91;10189739;28;20070;-68
2021/11/09 14:58:45;;;;;;;13.52;3.40;;;;;;;11.76;59.19;102510.81;10180278;28;20038;-68
2021/11/09 15:03:59;;;;;;;12.60;3.58;;;;;;;11.68;59.53;102508.66;10191110;28;20046;-68
2021/11/09 15:34:52;;;;;;;15.85;3.95;;;;;;;11.22;63.54;102525.28;10188838;28;20077;-69
2021/11/09 15:39:49;;;;;;;15.80;4.33;;;;;;;11.16;64.65;102529.91;10186865;28;20069;-71
2021/11/09 15:44:46;;;;;;;16.27;4.40;;;;;;;11.08;66.05;102522.28;10186173;28;20043;-68
2021/11/09 15:49:43;;;;;;;12.85;3.78;;;;;;;10.99;66.29;102521.22;10189643;28;20100;-69
2021/11/09 15:54:40;;;;;;;12.68;4.57;;;;;;;10.92;68.22;102524.22;10194564;28;20046;-68
2021/11/09 15:59:37;;;;;;;15.80;4.45;;;;;;;10.84;66.62;102527.53;10179073;28;20137;-70
2021/11/09 16:04:39;;;;;;;17.92;4.55;;;;;;;10.77;66.74;102521.50;10184898;28;20053;-69
2021/11/09 16:09:37;;;;;;;13.13;3.92;;;;;;;10.66;67.48;102527.00;10185019;28;20041;-70
2021/11/09 16:14:34;;;;;;;20.35;5.18;;;;;;;10.58;68.87;102524.78;10183607;28;20057;-71
2021/11/09 16:19:30;;;;;;;17.60;4.53;;;;;;;10.53;69.17;102522.88;10188796;28;20069;-69
2021/11/09 16:24:28;;;;;;;14.68;4.68;;;;;;;10.50;68.17;102517.16;10180928;28;20146;-70
2021/11/09 16:29:57;;;;;;;15.93;5.10;;;;;;;10.44;68.01;102534.63;10188311;28;20495;-68
2021/11/09 16:34:58;;;;;;;14.32;4.63;;;;;;;10.43;68.60;102538.47;10185399;28;20049;-69
2021/11/09 16:40:06;;;;;;;15.05;5.00;;;;;;;10.41;68.37;102537.94;10186540;28;20041;-69
2021/11/09 16:45:05;;;;;;;19.58;5.57;;;;;;;10.35;68.25;102530.78;10184198;28;20119;-69
2021/11/09 17:01:02;;;;;;;15.32;5.38;;;;;;;10.22;69.55;102557.56;10187493;28;20077;-70
2021/11/09 18:13:51;;;;;;;11.93;4.75;;;;;;;9.26;76.04;102558.81;10151269;28;20469;-69
2021/11/09 18:24:01;;;;;;;18.52;5.20;;;;;;;9.16;77.27;102575.13;10174055;28;20129;-68
2021/11/09 18:28:57;;;;;;;18.20;5.43;;;;;;;9.08;77.99;102581.09;10181649;28;20500;-69
2021/11/09 18:33:54;;;;;;;18.60;5.75;;;;;;;9.01;78.06;102573.94;10157834;28;20092;-68
2021/11/09 18:38:50;;;;;;;20.52;5.57;;;;;;;8.98;78.43;102573.63;10162970;28;20045;-68
2021/11/09 18:43:47;;;;;;;18.45;5.70;;;;;;;8.94;79.20;102572.53;10172056;28;20042;-68
2021/11/09 18:48:44;;;;;;;17.00;7.00;;;;;;;8.86;78.87;102571.06;10175770;28;20672;-68
2021/11/09 18:53:41;;;;;;;14.68;5.07;;;;;;;8.80;79.30;102569.41;10169426;28;20077;-67
2021/11/09 18:58:37;;;;;;;18.33;5.88;;;;;;;8.75;79.14;102561.16;10167666;28;20676;-68
2021/11/09 19:03:35;;;;;;;16.27;5.47;;;;;;;8.68;79.72;102574.19;10176314;28;20412;-68
2021/11/09 19:08:31;;;;;;;14.82;5.60;;;;;;;8.60;80.27;102573.59;10179244;28;20041;-68
2021/11/09 19:13:28;;;;;;;15.75;6.10;;;;;;;8.59;80.33;102571.97;10169767;28;20041;-69
2021/11/09 19:18:25;;;;;;;17.35;5.20;;;;;;;8.66;80.47;102571.75;10175679;28;20048;-69
2021/11/09 19:23:23;;;;;;;15.55;5.57;;;;;;;8.60;80.85;102565.41;10173709;28;20647;-68
2021/11/09 19:28:19;;;;;;;17.77;6.45;;;;;;;8.55;80.85;102570.00;10182749;28;20452;-67
2021/11/09 19:33:16;;;;;;;14.48;5.20;;;;;;;8.52;81.45;102574.06;10181887;28;20046;-67
2021/11/09 19:38:12;;;;;;;16.55;5.50;;;;;;;8.51;81.44;102574.31;10178048;28;20046;-68
2021/11/09 19:43:09;;;;;;;17.20;5.40;;;;;;;8.51;81.62;102566.97;10181975;28;20081;-68
2021/11/09 19:48:07;;;;;;;10.95;5.40;;;;;;;8.46;81.10;102566.91;10177589;28;20053;-69
2021/11/09 19:53:07;;;;;;;15.65;5.55;;;;;;;8.43;82.53;102568.25;10181510;28;20058;-69
2021/11/09 19:58:09;;;;;;;12.18;5.35;;;;;;;8.46;81.36;102563.38;10184781;28;20468;-69
2021/11/09 20:03:08;;;;;;;16.55;6.45;;;;;;;8.48;80.90;102570.22;10171830;28;20054;-69
2021/11/09 20:08:05;;;;;;;13.95;5.15;;;;;;;8.39;81.68;102566.28;10182959;28;20050;-70
2021/11/09 20:13:03;;;;;;;14.65;5.65;;;;;;;8.33;81.88;102562.69;10178446;28;20092;-69
2021/11/09 20:18:00;;;;;;;10.90;5.78;;;;;;;8.34;81.98;102558.88;10172960;28;20376;-69
2021/11/09 20:22:57;;;;;;;13.32;5.00;;;;;;;8.32;81.93;102549.31;10181565;28;20065;-70
2021/11/09 20:27:54;;;;;;;14.23;5.88;;;;;;;8.29;81.67;102563.47;10178472;28;20050;-69
2021/11/09 20:32:52;;;;;;;12.43;5.32;;;;;;;8.28;81.70;102565.34;10176825;28;20045;-70
2021/11/09 20:37:50;;;;;;;12.82;5.57;;;;;;;8.27;81.46;102562.91;10164346;28;20496;-69
2021/11/09 20:42:47;;;;;;;12.55;5.97;;;;;;;8.19;81.50;102556.84;10169208;28;20439;-70
2021/11/09 20:47:45;;;;;;;14.93;5.82;;;;;;;8.23;81.98;102555.22;10174834;28;20046;-69
2021/11/09 20:52:41;;;;;;;15.68;5.50;;;;;;;8.14;82.20;102540.41;10181640;28;20042;-72
2021/11/09 20:57:39;;;;;;;14.50;6.35;;;;;;;8.05;83.45;102539.22;10179975;28;20572;-71
2021/11/09 21:02:35;;;;;;;12.32;5.43;;;;;;;8.07;83.18;102537.06;10174206;28;20050;-72
2021/11/09 21:07:32;;;;;;;12.18;5.75;;;;;;;8.12;83.28;102528.13;10159962;28;20496;-72
2021/11/09 21:12:35;;;;;;;13.07;5.93;;;;;;;8.04;83.50;102526.69;10174783;28;20050;-70
2021/11/09 21:22:46;;;;;;;17.40;7.18;;;;;;;7.82;84.11;102513.13;10165984;28;20046;-71
2021/11/09 21:27:43;;;;;;;13.63;6.25;;;;;;;7.75;84.47;102510.59;10168422;28;20069;-71
2021/11/09 21:37:57;;;;;;;13.82;5.75;;;;;;;7.63;85.08;102501.72;10139390;28;20144;-71
2021/11/09 21:42:59;;;;;;;11.75;6.28;;;;;;;7.61;84.87;102501.13;10176601;28;20068;-71
2021/11/09 21:47:56;;;;;;;11.98;6.18;;;;;;;7.66;84.77;102497.66;10193121;28;20090;-70
2021/11/09 21:52:54;;;;;;;15.35;5.53;;;;;;;7.62;85.29;102488.38;10182589;28;20037;-71
2021/11/09 21:57:50;;;;;;;11.95;5.53;;;;;;;7.56;85.20;102484.75;10193056;28;20415;-72
2021/11/09 22:02:47;;;;;;;14.57;5.32;;;;;;;7.56;85.89;102492.91;10186393;28;20491;-70
2021/11/09 22:07:44;;;;;;;16.25;5.80;;;;;;;7.52;85.53;102492.63;10186134;28;20103;-70
2021/11/09 22:12:41;;;;;;;13.65;5.75;;;;;;;7.51;85.30;102485.50;10196619;28;20077;-71
2021/11/09 22:17:38;;;;;;;15.63;5.93;;;;;;;7.53;84.93;102482.56;10200604;28;20572;-69
2021/11/09 22:22:34;;;;;;;10.23;5.47;;;;;;;7.53;84.93;102488.00;10193397;28;20096;-69
2021/11/09 22:27:32;;;;;;;10.70;5.60;;;;;;;7.50;85.50;102477.63;10200985;28;20081;-71
2021/11/09 22:32:28;;;;;;;14.70;5.53;;;;;;;7.41;86.02;102479.13;10188244;28;20092;-70
2021/11/09 22:37:25;;;;;;;15.02;7.35;;;;;;;7.45;85.42;102485.69;10190124;28;20111;-70
2021/11/09 22:42:21;;;;;;;16.52;5.95;;;;;;;7.40;85.76;102493.81;10190111;28;20046;-70
2021/11/09 22:47:18;;;;;;;13.20;5.72;;;;;;;7.32;85.82;102485.00;10190675;28;20045;-70
2021/11/09 22:52:14;;;;;;;14.55;5.60;;;;;;;7.30;85.90;102484.44;10200308;28;20096;-72
2021/11/09 22:57:11;;;;;;;15.95;5.95;;;;;;;7.23;86.40;102483.81;10190589;28;20084;-71
2021/11/09 23:02:07;;;;;;;11.27;5.57;;;;;;;7.23;85.99;102489.25;10195170;28;20069;-70
2021/11/09 23:07:04;;;;;;;16.10;5.25;;;;;;;7.17;86.34;102490.25;10189570;28;20054;-70
2021/11/09 23:12:01;;;;;;;13.23;5.50;;;;;;;7.13;86.85;102483.69;10197259;28;20061;-72
2021/11/09 23:16:57;;;;;;;13.85;5.32;;;;;;;7.06;86.69;102483.03;10193381;28;20041;-70
2021/11/09 23:21:54;;;;;;;14.25;5.13;;;;;;;7.00;86.72;102478.59;10197474;28;20046;-72
2021/11/09 23:26:50;;;;;;;14.60;5.32;;;;;;;7.01;87.16;102474.78;10196704;28;20042;-71
2021/11/09 23:31:47;;;;;;;11.10;5.22;;;;;;;6.96;86.94;102472.81;10183237;28;20070;-70
2021/11/09 23:36:44;;;;;;;10.75;5.30;;;;;;;6.90;87.29;102480.09;10192964;28;20128;-70
2021/11/09 23:41:40;;;;;;;10.43;4.82;;;;;;;6.95;87.55;102469.28;10190522;28;20049;-70
2021/11/09 23:46:37;;;;;;;12.10;5.20;;;;;;;6.86;87.56;102472.69;10191310;28;20108;-69
2021/11/09 23:51:34;;;;;;;12.20;5.05;;;;;;;6.83;87.79;102484.88;10184051;28;20046;-70
2021/11/09 23:56:30;;;;;;;13.65;6.40;;;;;;;6.83;87.71;102481.34;10186202;28;20085;-71
